sensor_id;sensor_type;location;lat;lon;timestamp;noise_LAeq;noise_LA_min;noise_LA_max;noise_LA01;noise_LA95
60503;Laerm;51448;51.660;5.824;2022-10-16T00:01:38;45.09;30.02;55.65;;
60503;Laerm;51448;51.660;5.824;2022-10-16T00:04:05;46.48;29.75;58.97;;
60503;Laerm;51448;51.660;5.824;2022-10-16T00:06:33;44.21;30.27;54.97;;
60503;Laerm;51448;51.660;5.824;2022-10-16T00:09:00;45.17;29.89;55.86;;
60503;Laerm;51448;51.660;5.824;2022-10-16T00:11:32;44.14;29.56;54.93;;
60503;Laerm;51448;51.660;5.824;2022-10-16T00:14:04;44.85;29.57;58.30;;
60503;Laerm;51448;51.660;5.824;2022-10-16T00:16:33;31.72;29.33;41.05;;
60503;Laerm;51448;51.660;5.824;2022-10-16T00:19:02;43.93;30.07;54.87;;
60503;Laerm;51448;51.660;5.824;2022-10-16T00:21:31;43.99;29.47;54.82;;
60503;Laerm;51448;51.660;5.824;2022-10-16T00:24:07;43.90;28.91;55.82;;
60503;Laerm;51448;51.660;5.824;2022-10-16T00:26:38;44.89;29.59;56.01;;
60503;Laerm;51448;51.660;5.824;2022-10-16T00:29:07;44.23;29.37;54.93;;
60503;Laerm;51448;51.660;5.824;2022-10-16T00:31:35;44.36;29.02;55.17;;
60503;Laerm;51448;51.660;5.824;2022-10-16T00:34:03;43.45;29.69;54.26;;
60503;Laerm;51448;51.660;5.824;2022-10-16T00:36:30;43.89;29.04;55.14;;
60503;Laerm;51448;51.660;5.824;2022-10-16T00:38:59;44.06;29.20;54.93;;
60503;Laerm;51448;51.660;5.824;2022-10-16T00:41:29;44.15;28.95;54.92;;
60503;Laerm;51448;51.660;5.824;2022-10-16T00:44:00;44.35;28.87;54.75;;
60503;Laerm;51448;51.660;5.824;2022-10-16T00:46:38;45.05;29.95;56.10;;
60503;Laerm;51448;51.660;5.824;2022-10-16T00:49:16;43.97;30.10;55.05;;
60503;Laerm;51448;51.660;5.824;2022-10-16T00:51:50;44.79;29.74;55.73;;
60503;Laerm;51448;51.660;5.824;2022-10-16T00:54:23;44.17;29.59;55.22;;
60503;Laerm;51448;51.660;5.824;2022-10-16T00:56:53;45.03;29.42;55.69;;
60503;Laerm;51448;51.660;5.824;2022-10-16T00:59:29;45.00;29.27;55.88;;
60503;Laerm;51448;51.660;5.824;2022-10-16T01:01:59;44.91;29.53;55.69;;
60503;Laerm;51448;51.660;5.824;2022-10-16T01:04:40;44.22;29.76;55.23;;
60503;Laerm;51448;51.660;5.824;2022-10-16T01:07:37;45.59;29.74;56.15;;
60503;Laerm;51448;51.660;5.824;2022-10-16T01:10:27;45.47;29.66;56.38;;
60503;Laerm;51448;51.660;5.824;2022-10-16T01:13:07;44.57;29.85;55.82;;
60503;Laerm;51448;51.660;5.824;2022-10-16T01:15:54;44.62;29.51;58.43;;
60503;Laerm;51448;51.660;5.824;2022-10-16T01:18:39;44.21;30.36;55.46;;
60503;Laerm;51448;51.660;5.824;2022-10-16T01:21:28;43.18;28.68;54.83;;
60503;Laerm;51448;51.660;5.824;2022-10-16T01:24:17;44.61;29.54;55.41;;
60503;Laerm;51448;51.660;5.824;2022-10-16T01:27:14;43.94;30.60;56.89;;
60503;Laerm;51448;51.660;5.824;2022-10-16T01:30:21;43.57;29.81;54.91;;
60503;Laerm;51448;51.660;5.824;2022-10-16T01:32:50;43.50;28.95;55.38;;
60503;Laerm;51448;51.660;5.824;2022-10-16T01:35:38;45.08;29.54;55.27;;
60503;Laerm;51448;51.660;5.824;2022-10-16T01:38:29;42.60;29.84;53.81;;
60503;Laerm;51448;51.660;5.824;2022-10-16T01:41:09;43.00;29.71;54.17;;
60503;Laerm;51448;51.660;5.824;2022-10-16T01:43:46;44.76;30.45;54.99;;
60503;Laerm;51448;51.660;5.824;2022-10-16T01:46:20;45.72;30.03;55.59;;
60503;Laerm;51448;51.660;5.824;2022-10-16T01:48:49;44.12;29.42;54.98;;
60503;Laerm;51448;51.660;5.824;2022-10-16T01:51:20;44.05;30.44;55.09;;
60503;Laerm;51448;51.660;5.824;2022-10-16T01:53:54;45.72;30.50;56.18;;
60503;Laerm;51448;51.660;5.824;2022-10-16T01:56:24;44.22;29.88;55.16;;
60503;Laerm;51448;51.660;5.824;2022-10-16T01:59:01;43.82;30.21;55.11;;
60503;Laerm;51448;51.660;5.824;2022-10-16T02:01:33;44.06;30.34;56.02;;
60503;Laerm;51448;51.660;5.824;2022-10-16T02:04:13;45.91;31.36;56.33;;
60503;Laerm;51448;51.660;5.824;2022-10-16T02:06:42;45.33;30.73;56.34;;
60503;Laerm;51448;51.660;5.824;2022-10-16T02:09:09;44.49;30.29;55.31;;
60503;Laerm;51448;51.660;5.824;2022-10-16T02:11:37;44.52;30.04;55.99;;
60503;Laerm;51448;51.660;5.824;2022-10-16T02:14:06;43.88;30.77;54.34;;
60503;Laerm;51448;51.660;5.824;2022-10-16T02:16:41;43.45;30.45;54.02;;
60503;Laerm;51448;51.660;5.824;2022-10-16T02:19:17;44.20;30.92;54.95;;
60503;Laerm;51448;51.660;5.824;2022-10-16T02:21:58;44.45;31.15;55.00;;
60503;Laerm;51448;51.660;5.824;2022-10-16T02:25:03;44.68;30.85;55.70;;
60503;Laerm;51448;51.660;5.824;2022-10-16T02:27:56;44.42;30.94;59.15;;
60503;Laerm;51448;51.660;5.824;2022-10-16T02:30:45;44.17;30.76;55.18;;
60503;Laerm;51448;51.660;5.824;2022-10-16T02:33:17;43.91;30.65;55.02;;
60503;Laerm;51448;51.660;5.824;2022-10-16T02:35:49;45.25;30.44;55.97;;
60503;Laerm;51448;51.660;5.824;2022-10-16T02:38:18;32.53;30.01;44.31;;
60503;Laerm;51448;51.660;5.824;2022-10-16T02:40:47;43.89;30.59;56.80;;
60503;Laerm;51448;51.660;5.824;2022-10-16T02:43:16;45.11;31.29;55.97;;
60503;Laerm;51448;51.660;5.824;2022-10-16T02:45:43;44.44;30.18;56.38;;
60503;Laerm;51448;51.660;5.824;2022-10-16T02:48:11;44.55;30.54;55.11;;
60503;Laerm;51448;51.660;5.824;2022-10-16T02:50:38;44.52;30.51;57.22;;
60503;Laerm;51448;51.660;5.824;2022-10-16T02:53:05;43.64;30.07;54.73;;
60503;Laerm;51448;51.660;5.824;2022-10-16T02:55:33;43.48;29.81;54.32;;
60503;Laerm;51448;51.660;5.824;2022-10-16T02:58:00;43.98;30.03;55.14;;
60503;Laerm;51448;51.660;5.824;2022-10-16T03:00:28;44.40;30.37;54.98;;
60503;Laerm;51448;51.660;5.824;2022-10-16T03:02:55;44.00;29.63;54.92;;
60503;Laerm;51448;51.660;5.824;2022-10-16T03:05:23;46.29;29.66;56.66;;
60503;Laerm;51448;51.660;5.824;2022-10-16T03:07:50;44.97;30.99;55.59;;
60503;Laerm;51448;51.660;5.824;2022-10-16T03:10:19;44.45;29.94;55.15;;
60503;Laerm;51448;51.660;5.824;2022-10-16T03:12:47;43.93;29.76;54.80;;
60503;Laerm;51448;51.660;5.824;2022-10-16T03:15:15;44.27;29.77;54.81;;
60503;Laerm;51448;51.660;5.824;2022-10-16T03:17:42;45.14;29.61;55.92;;
60503;Laerm;51448;51.660;5.824;2022-10-16T03:20:10;43.98;29.60;54.88;;
60503;Laerm;51448;51.660;5.824;2022-10-16T03:22:37;44.26;29.63;55.26;;
60503;Laerm;51448;51.660;5.824;2022-10-16T03:25:05;44.26;29.83;55.14;;
60503;Laerm;51448;51.660;5.824;2022-10-16T03:27:33;44.52;30.44;63.79;;
60503;Laerm;51448;51.660;5.824;2022-10-16T03:30:00;44.90;30.06;55.67;;
60503;Laerm;51448;51.660;5.824;2022-10-16T03:32:28;44.53;30.54;55.46;;
60503;Laerm;51448;51.660;5.824;2022-10-16T03:34:55;44.29;30.44;54.99;;
60503;Laerm;51448;51.660;5.824;2022-10-16T03:37:24;44.27;30.82;55.21;;
60503;Laerm;51448;51.660;5.824;2022-10-16T03:39:52;44.21;30.27;55.01;;
60503;Laerm;51448;51.660;5.824;2022-10-16T03:42:19;44.39;29.69;55.21;;
60503;Laerm;51448;51.660;5.824;2022-10-16T03:44:47;44.14;29.41;54.90;;
60503;Laerm;51448;51.660;5.824;2022-10-16T03:47:14;44.12;29.57;54.82;;
60503;Laerm;51448;51.660;5.824;2022-10-16T03:49:42;46.42;30.13;58.47;;
60503;Laerm;51448;51.660;5.824;2022-10-16T03:52:10;44.14;30.05;54.75;;
60503;Laerm;51448;51.660;5.824;2022-10-16T03:54:37;44.26;30.09;55.24;;
60503;Laerm;51448;51.660;5.824;2022-10-16T03:57:05;43.64;30.73;54.19;;
60503;Laerm;51448;51.660;5.824;2022-10-16T03:59:32;45.09;29.99;55.58;;
60503;Laerm;51448;51.660;5.824;2022-10-16T04:01:59;44.39;29.77;55.10;;
60503;Laerm;51448;51.660;5.824;2022-10-16T04:04:27;43.96;29.92;54.72;;
60503;Laerm;51448;51.660;5.824;2022-10-16T04:06:54;45.08;30.37;56.00;;
60503;Laerm;51448;51.660;5.824;2022-10-16T04:09:21;43.75;30.24;54.43;;
60503;Laerm;51448;51.660;5.824;2022-10-16T04:11:49;45.48;31.17;56.12;;
60503;Laerm;51448;51.660;5.824;2022-10-16T04:14:16;44.91;29.81;58.95;;
60503;Laerm;51448;51.660;5.824;2022-10-16T04:16:44;46.06;29.95;56.02;;
60503;Laerm;51448;51.660;5.824;2022-10-16T04:19:11;43.80;29.86;55.03;;
60503;Laerm;51448;51.660;5.824;2022-10-16T04:21:39;44.80;30.88;55.90;;
60503;Laerm;51448;51.660;5.824;2022-10-16T04:24:06;44.51;30.11;55.21;;
60503;Laerm;51448;51.660;5.824;2022-10-16T04:26:34;44.20;29.96;54.89;;
60503;Laerm;51448;51.660;5.824;2022-10-16T04:29:01;44.28;30.84;56.05;;
60503;Laerm;51448;51.660;5.824;2022-10-16T04:31:29;43.66;30.06;54.30;;
60503;Laerm;51448;51.660;5.824;2022-10-16T04:33:56;43.65;30.87;54.36;;
60503;Laerm;51448;51.660;5.824;2022-10-16T04:36:24;46.62;30.81;60.12;;
60503;Laerm;51448;51.660;5.824;2022-10-16T04:38:55;43.24;29.71;54.66;;
60503;Laerm;51448;51.660;5.824;2022-10-16T04:41:23;43.69;29.97;54.61;;
60503;Laerm;51448;51.660;5.824;2022-10-16T04:43:50;44.55;30.23;55.51;;
60503;Laerm;51448;51.660;5.824;2022-10-16T04:46:17;44.02;30.29;54.71;;
60503;Laerm;51448;51.660;5.824;2022-10-16T04:48:45;44.86;30.40;55.69;;
60503;Laerm;51448;51.660;5.824;2022-10-16T04:51:13;49.74;30.83;64.19;;
60503;Laerm;51448;51.660;5.824;2022-10-16T04:53:41;47.04;32.43;57.75;;
60503;Laerm;51448;51.660;5.824;2022-10-16T04:56:08;45.11;32.21;55.47;;
60503;Laerm;51448;51.660;5.824;2022-10-16T04:58:36;43.92;30.79;57.09;;
60503;Laerm;51448;51.660;5.824;2022-10-16T05:01:03;44.27;31.00;56.54;;
60503;Laerm;51448;51.660;5.824;2022-10-16T05:03:31;43.76;30.51;54.34;;
60503;Laerm;51448;51.660;5.824;2022-10-16T05:05:58;44.16;30.41;54.47;;
60503;Laerm;51448;51.660;5.824;2022-10-16T05:08:26;45.71;31.55;57.31;;
60503;Laerm;51448;51.660;5.824;2022-10-16T05:10:53;45.95;31.01;56.00;;
60503;Laerm;51448;51.660;5.824;2022-10-16T05:13:20;46.15;32.58;56.10;;
60503;Laerm;51448;51.660;5.824;2022-10-16T05:15:48;44.14;32.07;54.98;;
60503;Laerm;51448;51.660;5.824;2022-10-16T05:18:16;44.98;31.96;55.87;;
60503;Laerm;51448;51.660;5.824;2022-10-16T05:20:43;44.26;31.46;58.15;;
60503;Laerm;51448;51.660;5.824;2022-10-16T05:23:11;56.02;31.41;82.88;;
60503;Laerm;51448;51.660;5.824;2022-10-16T05:25:39;44.24;31.10;55.19;;
60503;Laerm;51448;51.660;5.824;2022-10-16T05:28:07;46.47;31.42;56.68;;
60503;Laerm;51448;51.660;5.824;2022-10-16T05:30:37;47.62;32.14;58.97;;
60503;Laerm;51448;51.660;5.824;2022-10-16T05:33:04;45.88;32.04;56.31;;
60503;Laerm;51448;51.660;5.824;2022-10-16T05:35:33;46.47;31.75;57.79;;
60503;Laerm;51448;51.660;5.824;2022-10-16T05:38:00;45.08;31.33;61.90;;
60503;Laerm;51448;51.660;5.824;2022-10-16T05:40:28;44.92;30.98;65.16;;
60503;Laerm;51448;51.660;5.824;2022-10-16T05:42:55;44.65;30.73;55.18;;
60503;Laerm;51448;51.660;5.824;2022-10-16T05:45:23;46.63;31.74;60.79;;
60503;Laerm;51448;51.660;5.824;2022-10-16T05:47:50;44.96;31.46;61.96;;
60503;Laerm;51448;51.660;5.824;2022-10-16T05:50:18;46.18;31.32;62.37;;
60503;Laerm;51448;51.660;5.824;2022-10-16T05:52:45;44.90;31.86;54.78;;
60503;Laerm;51448;51.660;5.824;2022-10-16T05:55:13;44.60;31.57;55.21;;
60503;Laerm;51448;51.660;5.824;2022-10-16T05:57:40;44.93;31.81;63.22;;
60503;Laerm;51448;51.660;5.824;2022-10-16T06:00:09;53.42;31.52;81.48;;
60503;Laerm;51448;51.660;5.824;2022-10-16T06:02:39;52.66;32.05;81.91;;
60503;Laerm;51448;51.660;5.824;2022-10-16T06:05:07;49.79;31.96;68.06;;
60503;Laerm;51448;51.660;5.824;2022-10-16T06:07:35;47.15;31.93;67.45;;
60503;Laerm;51448;51.660;5.824;2022-10-16T06:10:04;55.93;31.74;83.07;;
60503;Laerm;51448;51.660;5.824;2022-10-16T06:12:31;58.05;31.65;85.95;;
60503;Laerm;51448;51.660;5.824;2022-10-16T06:14:59;50.08;31.33;68.86;;
60503;Laerm;51448;51.660;5.824;2022-10-16T06:17:26;49.01;32.11;70.86;;
60503;Laerm;51448;51.660;5.824;2022-10-16T06:19:54;48.37;30.32;69.95;;
60503;Laerm;51448;51.660;5.824;2022-10-16T06:22:21;47.07;31.58;65.48;;
60503;Laerm;51448;51.660;5.824;2022-10-16T06:24:49;47.29;30.55;68.49;;
60503;Laerm;51448;51.660;5.824;2022-10-16T06:27:17;50.72;31.78;65.13;;
60503;Laerm;51448;51.660;5.824;2022-10-16T06:29:45;49.03;31.30;75.12;;
60503;Laerm;51448;51.660;5.824;2022-10-16T06:32:12;50.66;32.22;72.98;;
60503;Laerm;51448;51.660;5.824;2022-10-16T06:34:39;54.24;32.65;76.61;;
60503;Laerm;51448;51.660;5.824;2022-10-16T06:37:10;55.90;33.66;74.95;;
60503;Laerm;51448;51.660;5.824;2022-10-16T06:39:37;49.13;34.60;63.07;;
60503;Laerm;51448;51.660;5.824;2022-10-16T06:42:05;60.43;34.02;85.82;;
60503;Laerm;51448;51.660;5.824;2022-10-16T06:44:35;50.36;33.48;66.85;;
60503;Laerm;51448;51.660;5.824;2022-10-16T06:47:03;52.14;33.19;62.17;;
60503;Laerm;51448;51.660;5.824;2022-10-16T06:49:30;54.01;43.11;65.10;;
60503;Laerm;51448;51.660;5.824;2022-10-16T06:51:58;53.22;43.09;63.87;;
60503;Laerm;51448;51.660;5.824;2022-10-16T06:54:25;50.64;34.10;63.65;;
60503;Laerm;51448;51.660;5.824;2022-10-16T06:56:53;47.93;33.59;64.97;;
60503;Laerm;51448;51.660;5.824;2022-10-16T06:59:21;45.71;33.23;59.19;;
60503;Laerm;51448;51.660;5.824;2022-10-16T07:01:49;45.83;32.08;56.31;;
60503;Laerm;51448;51.660;5.824;2022-10-16T07:04:17;47.04;32.95;58.68;;
60503;Laerm;51448;51.660;5.824;2022-10-16T07:06:47;47.40;32.89;64.36;;
60503;Laerm;51448;51.660;5.824;2022-10-16T07:09:14;47.66;32.29;65.31;;
60503;Laerm;51448;51.660;5.824;2022-10-16T07:11:41;50.31;32.94;74.74;;
60503;Laerm;51448;51.660;5.824;2022-10-16T07:14:21;50.78;31.41;74.75;;
60503;Laerm;51448;51.660;5.824;2022-10-16T07:16:48;47.01;33.13;62.26;;
60503;Laerm;51448;51.660;5.824;2022-10-16T07:19:16;50.97;32.56;64.43;;
60503;Laerm;51448;51.660;5.824;2022-10-16T07:21:44;50.33;34.44;62.33;;
60503;Laerm;51448;51.660;5.824;2022-10-16T07:24:15;47.05;33.43;59.34;;
60503;Laerm;51448;51.660;5.824;2022-10-16T07:26:45;48.96;33.84;63.96;;
60503;Laerm;51448;51.660;5.824;2022-10-16T07:29:17;46.64;33.62;68.52;;
60503;Laerm;51448;51.660;5.824;2022-10-16T07:31:46;55.03;32.51;74.87;;
60503;Laerm;51448;51.660;5.824;2022-10-16T07:34:18;57.36;33.13;82.90;;
60503;Laerm;51448;51.660;5.824;2022-10-16T07:36:49;49.38;35.17;69.77;;
60503;Laerm;51448;51.660;5.824;2022-10-16T07:39:17;57.47;33.44;86.56;;
60503;Laerm;51448;51.660;5.824;2022-10-16T07:41:45;48.43;33.98;70.88;;
60503;Laerm;51448;51.660;5.824;2022-10-16T07:44:12;49.02;36.06;72.86;;
60503;Laerm;51448;51.660;5.824;2022-10-16T07:46:39;48.98;33.64;69.62;;
60503;Laerm;51448;51.660;5.824;2022-10-16T07:49:08;47.88;33.66;71.03;;
60503;Laerm;51448;51.660;5.824;2022-10-16T07:51:35;46.60;34.51;59.00;;
60503;Laerm;51448;51.660;5.824;2022-10-16T07:54:03;49.42;34.02;65.90;;
60503;Laerm;51448;51.660;5.824;2022-10-16T07:56:31;48.18;33.89;67.37;;
60503;Laerm;51448;51.660;5.824;2022-10-16T07:58:59;51.13;35.58;69.17;;
60503;Laerm;51448;51.660;5.824;2022-10-16T08:01:27;50.17;35.32;69.23;;
60503;Laerm;51448;51.660;5.824;2022-10-16T08:03:54;46.41;34.56;57.26;;
60503;Laerm;51448;51.660;5.824;2022-10-16T08:06:22;48.99;36.17;63.89;;
60503;Laerm;51448;51.660;5.824;2022-10-16T08:08:55;50.01;35.67;65.04;;
60503;Laerm;51448;51.660;5.824;2022-10-16T08:11:23;53.64;36.05;76.64;;
60503;Laerm;51448;51.660;5.824;2022-10-16T08:13:50;49.11;35.60;59.29;;
60503;Laerm;51448;51.660;5.824;2022-10-16T08:16:18;49.77;36.88;61.86;;
60503;Laerm;51448;51.660;5.824;2022-10-16T08:18:46;48.71;35.54;66.11;;
60503;Laerm;51448;51.660;5.824;2022-10-16T08:21:16;53.48;36.58;68.96;;
60503;Laerm;51448;51.660;5.824;2022-10-16T08:23:49;49.20;36.16;64.04;;
60503;Laerm;51448;51.660;5.824;2022-10-16T08:26:26;58.06;36.84;82.12;;
60503;Laerm;51448;51.660;5.824;2022-10-16T08:28:55;51.40;36.00;60.91;;
60503;Laerm;51448;51.660;5.824;2022-10-16T08:31:23;51.42;36.16;63.87;;
60503;Laerm;51448;51.660;5.824;2022-10-16T08:33:51;50.62;36.25;65.42;;
60503;Laerm;51448;51.660;5.824;2022-10-16T08:36:19;50.46;35.53;69.78;;
60503;Laerm;51448;51.660;5.824;2022-10-16T08:38:48;52.10;34.97;64.75;;
60503;Laerm;51448;51.660;5.824;2022-10-16T08:50:00;47.20;34.48;57.70;;
60503;Laerm;51448;51.660;5.824;2022-10-16T08:52:33;48.40;35.60;66.89;;
60503;Laerm;51448;51.660;5.824;2022-10-16T08:55:04;48.45;36.37;57.96;;
60503;Laerm;51448;51.660;5.824;2022-10-16T08:57:32;47.21;36.02;58.17;;
60503;Laerm;51448;51.660;5.824;2022-10-16T09:00:11;51.66;38.18;62.99;;
60503;Laerm;51448;51.660;5.824;2022-10-16T09:03:10;48.40;35.58;67.99;;
60503;Laerm;51448;51.660;5.824;2022-10-16T09:09:40;48.07;35.41;67.17;;
60503;Laerm;51448;51.660;5.824;2022-10-16T09:12:13;47.65;37.96;63.21;;
60503;Laerm;51448;51.660;5.824;2022-10-16T09:18:06;50.33;34.81;66.50;;
60503;Laerm;51448;51.660;5.824;2022-10-16T09:21:08;47.84;34.57;62.47;;
60503;Laerm;51448;51.660;5.824;2022-10-16T09:23:37;48.65;36.27;57.94;;
60503;Laerm;51448;51.660;5.824;2022-10-16T09:26:10;50.16;36.10;72.09;;
60503;Laerm;51448;51.660;5.824;2022-10-16T09:28:39;51.38;35.72;68.77;;
60503;Laerm;51448;51.660;5.824;2022-10-16T09:31:19;49.22;34.72;58.30;;
60503;Laerm;51448;51.660;5.824;2022-10-16T09:33:55;53.64;35.12;70.38;;
60503;Laerm;51448;51.660;5.824;2022-10-16T09:36:27;48.45;33.06;62.90;;
60503;Laerm;51448;51.660;5.824;2022-10-16T09:39:09;52.00;35.66;71.12;;
60503;Laerm;51448;51.660;5.824;2022-10-16T09:41:44;50.16;38.52;59.15;;
60503;Laerm;51448;51.660;5.824;2022-10-16T09:44:28;49.27;36.46;58.49;;
60503;Laerm;51448;51.660;5.824;2022-10-16T09:47:17;54.24;37.58;71.72;;
60503;Laerm;51448;51.660;5.824;2022-10-16T09:50:01;49.08;35.36;59.93;;
60503;Laerm;51448;51.660;5.824;2022-10-16T09:52:32;49.38;34.56;68.99;;
60503;Laerm;51448;51.660;5.824;2022-10-16T09:55:13;49.73;34.58;60.07;;
60503;Laerm;51448;51.660;5.824;2022-10-16T09:57:51;49.89;34.91;61.08;;
60503;Laerm;51448;51.660;5.824;2022-10-16T10:00:21;48.46;34.30;64.48;;
60503;Laerm;51448;51.660;5.824;2022-10-16T10:02:51;54.98;35.29;78.91;;
60503;Laerm;51448;51.660;5.824;2022-10-16T10:05:28;51.09;35.06;73.83;;
60503;Laerm;51448;51.660;5.824;2022-10-16T10:07:59;50.40;34.27;63.38;;
60503;Laerm;51448;51.660;5.824;2022-10-16T10:10:29;49.16;35.06;60.32;;
60503;Laerm;51448;51.660;5.824;2022-10-16T10:12:58;50.24;36.27;72.56;;
60503;Laerm;51448;51.660;5.824;2022-10-16T10:15:33;50.42;37.34;62.96;;
60503;Laerm;51448;51.660;5.824;2022-10-16T10:18:01;50.79;35.60;62.14;;
60503;Laerm;51448;51.660;5.824;2022-10-16T10:20:35;49.34;34.82;64.67;;
60503;Laerm;51448;51.660;5.824;2022-10-16T10:23:24;48.42;36.17;61.51;;
60503;Laerm;51448;51.660;5.824;2022-10-16T10:26:11;47.31;34.98;59.62;;
60503;Laerm;51448;51.660;5.824;2022-10-16T10:31:47;49.73;35.25;63.68;;
60503;Laerm;51448;51.660;5.824;2022-10-16T10:34:47;49.29;35.11;62.54;;
60503;Laerm;51448;51.660;5.824;2022-10-16T10:40:42;49.12;35.30;60.58;;
60503;Laerm;51448;51.660;5.824;2022-10-16T10:43:37;49.59;36.27;62.69;;
60503;Laerm;51448;51.660;5.824;2022-10-16T10:46:15;50.59;37.47;61.22;;
60503;Laerm;51448;51.660;5.824;2022-10-16T10:49:19;50.24;35.47;65.80;;
60503;Laerm;51448;51.660;5.824;2022-10-16T10:52:45;49.84;34.63;61.68;;
60503;Laerm;51448;51.660;5.824;2022-10-16T10:55:49;50.55;36.38;59.46;;
60503;Laerm;51448;51.660;5.824;2022-10-16T10:58:42;49.44;33.57;59.29;;
60503;Laerm;51448;51.660;5.824;2022-10-16T11:01:24;49.06;34.35;59.99;;
60503;Laerm;51448;51.660;5.824;2022-10-16T11:04:39;47.55;32.36;57.84;;
60503;Laerm;51448;51.660;5.824;2022-10-16T11:07:42;48.62;31.62;59.94;;
60503;Laerm;51448;51.660;5.824;2022-10-16T11:10:49;47.69;33.50;58.76;;
60503;Laerm;51448;51.660;5.824;2022-10-16T11:13:43;48.23;35.95;60.59;;
60503;Laerm;51448;51.660;5.824;2022-10-16T11:16:26;63.18;38.56;75.06;;
60503;Laerm;51448;51.660;5.824;2022-10-16T11:22:01;48.45;34.09;57.49;;
60503;Laerm;51448;51.660;5.824;2022-10-16T11:24:45;51.93;34.64;67.73;;
60503;Laerm;51448;51.660;5.824;2022-10-16T11:27:26;49.78;35.31;58.56;;
60503;Laerm;51448;51.660;5.824;2022-10-16T11:30:02;48.69;36.78;59.86;;
60503;Laerm;51448;51.660;5.824;2022-10-16T11:38:10;47.94;32.71;57.27;;
60503;Laerm;51448;51.660;5.824;2022-10-16T11:40:43;47.71;33.96;63.63;;
60503;Laerm;51448;51.660;5.824;2022-10-16T11:43:29;49.57;33.02;65.31;;
60503;Laerm;51448;51.660;5.824;2022-10-16T11:46:10;49.44;33.21;63.60;;
60503;Laerm;51448;51.660;5.824;2022-10-16T11:48:54;50.13;33.09;62.92;;
60503;Laerm;51448;51.660;5.824;2022-10-16T11:51:36;50.92;34.67;64.49;;
60503;Laerm;51448;51.660;5.824;2022-10-16T11:54:28;49.10;34.80;60.90;;
60503;Laerm;51448;51.660;5.824;2022-10-16T11:57:09;48.79;32.15;62.68;;
60503;Laerm;51448;51.660;5.824;2022-10-16T11:59:49;49.11;32.72;66.33;;
60503;Laerm;51448;51.660;5.824;2022-10-16T12:02:39;47.12;32.55;58.74;;
60503;Laerm;51448;51.660;5.824;2022-10-16T12:08:15;48.72;32.83;57.56;;
60503;Laerm;51448;51.660;5.824;2022-10-16T12:10:47;48.37;33.96;58.56;;
60503;Laerm;51448;51.660;5.824;2022-10-16T12:13:38;42.59;32.23;62.33;;
60503;Laerm;51448;51.660;5.824;2022-10-16T12:18:43;49.23;31.76;60.03;;
60503;Laerm;51448;51.660;5.824;2022-10-16T12:21:13;49.95;32.78;70.68;;
60503;Laerm;51448;51.660;5.824;2022-10-16T12:23:54;48.26;29.78;58.26;;
60503;Laerm;51448;51.660;5.824;2022-10-16T12:26:33;48.64;31.04;59.93;;
60503;Laerm;51448;51.660;5.824;2022-10-16T12:29:42;47.99;32.01;65.75;;
60503;Laerm;51448;51.660;5.824;2022-10-16T12:32:35;48.75;32.35;64.83;;
60503;Laerm;51448;51.660;5.824;2022-10-16T12:35:23;48.82;31.50;65.38;;
60503;Laerm;51448;51.660;5.824;2022-10-16T12:37:53;49.60;31.40;65.12;;
60503;Laerm;51448;51.660;5.824;2022-10-16T12:40:27;48.66;33.49;57.98;;
60503;Laerm;51448;51.660;5.824;2022-10-16T12:42:57;49.48;32.88;61.56;;
60503;Laerm;51448;51.660;5.824;2022-10-16T12:45:34;49.31;30.89;61.53;;
60503;Laerm;51448;51.660;5.824;2022-10-16T12:48:18;50.56;31.59;71.18;;
60503;Laerm;51448;51.660;5.824;2022-10-16T12:50:46;52.27;30.76;75.94;;
60503;Laerm;51448;51.660;5.824;2022-10-16T12:53:26;59.46;31.34;89.21;;
60503;Laerm;51448;51.660;5.824;2022-10-16T12:56:24;48.06;30.81;62.59;;
60503;Laerm;51448;51.660;5.824;2022-10-16T12:59:13;48.56;30.13;58.77;;
60503;Laerm;51448;51.660;5.824;2022-10-16T13:08:04;52.68;29.20;80.03;;
60503;Laerm;51448;51.660;5.824;2022-10-16T13:20:02;50.67;32.45;73.17;;
60503;Laerm;51448;51.660;5.824;2022-10-16T13:25:29;47.47;30.14;63.33;;
60503;Laerm;51448;51.660;5.824;2022-10-16T13:28:03;51.35;30.10;72.05;;
60503;Laerm;51448;51.660;5.824;2022-10-16T13:30:50;51.25;30.93;77.13;;
60503;Laerm;51448;51.660;5.824;2022-10-16T13:33:30;50.10;30.24;66.61;;
60503;Laerm;51448;51.660;5.824;2022-10-16T13:36:00;53.69;30.10;79.24;;
60503;Laerm;51448;51.660;5.824;2022-10-16T13:38:35;56.25;30.16;81.01;;
60503;Laerm;51448;51.660;5.824;2022-10-16T13:41:16;48.88;30.57;58.72;;
60503;Laerm;51448;51.660;5.824;2022-10-16T13:43:47;49.87;31.02;59.68;;
60503;Laerm;51448;51.660;5.824;2022-10-16T13:46:18;49.09;30.66;58.82;;
60503;Laerm;51448;51.660;5.824;2022-10-16T13:49:13;48.08;29.75;72.45;;
60503;Laerm;51448;51.660;5.824;2022-10-16T13:51:53;54.90;30.33;81.90;;
60503;Laerm;51448;51.660;5.824;2022-10-16T13:54:23;56.87;29.93;80.33;;
60503;Laerm;51448;51.660;5.824;2022-10-16T13:56:51;50.25;29.70;75.31;;
60503;Laerm;51448;51.660;5.824;2022-10-16T13:59:37;48.83;30.61;66.59;;
60503;Laerm;51448;51.660;5.824;2022-10-16T14:02:26;51.94;34.92;69.44;;
60503;Laerm;51448;51.660;5.824;2022-10-16T14:04:57;51.27;31.91;74.35;;
60503;Laerm;51448;51.660;5.824;2022-10-16T14:07:30;51.32;32.29;69.64;;
60503;Laerm;51448;51.660;5.824;2022-10-16T14:10:05;50.19;32.01;63.23;;
60503;Laerm;51448;51.660;5.824;2022-10-16T14:12:34;50.35;31.39;61.72;;
60503;Laerm;51448;51.660;5.824;2022-10-16T14:15:02;49.34;31.34;60.46;;
60503;Laerm;51448;51.660;5.824;2022-10-16T14:17:35;50.34;31.57;61.69;;
60503;Laerm;51448;51.660;5.824;2022-10-16T14:20:05;48.45;31.28;57.78;;
60503;Laerm;51448;51.660;5.824;2022-10-16T14:22:41;47.69;29.90;65.58;;
60503;Laerm;51448;51.660;5.824;2022-10-16T14:28:19;49.91;30.94;60.01;;
60503;Laerm;51448;51.660;5.824;2022-10-16T14:36:14;50.12;31.06;61.11;;
60503;Laerm;51448;51.660;5.824;2022-10-16T14:39:17;46.96;30.12;59.38;;
60503;Laerm;51448;51.660;5.824;2022-10-16T14:41:49;49.26;32.13;64.80;;
60503;Laerm;51448;51.660;5.824;2022-10-16T14:44:18;49.62;32.36;60.91;;
60503;Laerm;51448;51.660;5.824;2022-10-16T14:46:50;49.16;30.89;59.34;;
60503;Laerm;51448;51.660;5.824;2022-10-16T14:49:20;48.88;30.64;61.14;;
60503;Laerm;51448;51.660;5.824;2022-10-16T14:51:49;48.03;30.71;57.64;;
60503;Laerm;51448;51.660;5.824;2022-10-16T14:54:18;50.19;30.80;59.60;;
60503;Laerm;51448;51.660;5.824;2022-10-16T14:56:53;48.23;30.19;58.21;;
60503;Laerm;51448;51.660;5.824;2022-10-16T14:59:39;48.13;30.65;58.18;;
60503;Laerm;51448;51.660;5.824;2022-10-16T15:02:28;48.68;29.91;59.48;;
60503;Laerm;51448;51.660;5.824;2022-10-16T15:04:56;49.34;30.61;58.21;;
60503;Laerm;51448;51.660;5.824;2022-10-16T15:07:24;49.46;30.13;58.79;;
60503;Laerm;51448;51.660;5.824;2022-10-16T15:09:53;49.03;30.46;58.36;;
60503;Laerm;51448;51.660;5.824;2022-10-16T15:12:20;51.82;31.09;62.53;;
60503;Laerm;51448;51.660;5.824;2022-10-16T15:14:48;49.22;30.08;64.78;;
60503;Laerm;51448;51.660;5.824;2022-10-16T15:17:15;48.41;29.98;61.33;;
60503;Laerm;51448;51.660;5.824;2022-10-16T15:19:47;54.35;30.07;75.04;;
60503;Laerm;51448;51.660;5.824;2022-10-16T15:22:15;48.90;30.11;58.58;;
60503;Laerm;51448;51.660;5.824;2022-10-16T15:24:43;48.11;29.67;57.67;;